Time;durP1;ratioP1;P1;durP2;ratioP2;P2;SDS_P1;SDS_P2;PMS_P1;PMS_P2;Temp;Humidity;BMP_temperature;BMP_pressure;BME280_temperature;BME280_humidity;BME280_pressure;Samples;Min_cycle;Max_cycle;Signal;HPM_P1;HPM_P2
2022/10/15 00:00:47;;;;;;;1.80;0.97;;;;;;;6.16;100.00;100514.86;1682823;83;21064;-47
2022/10/15 00:03:14;;;;;;;3.90;1.03;;;;;;;6.20;100.00;100515.24;1678444;83;21056;-47
2022/10/15 00:05:41;;;;;;;2.83;1.00;;;;;;;6.22;100.00;100518.74;1684804;83;22902;-47
2022/10/15 00:08:09;;;;;;;1.40;0.97;;;;;;;6.24;100.00;100518.27;1683660;83;21620;-49
2022/10/15 00:10:35;;;;;;;4.60;1.10;;;;;;;6.25;100.00;100516.02;1683439;83;21134;-47
2022/10/15 00:13:04;;;;;;;4.20;1.40;;;;;;;6.25;100.00;100520.03;1679692;83;21060;-47
2022/10/15 00:15:31;;;;;;;3.83;1.07;;;;;;;6.26;100.00;100514.67;1685184;83;21056;-48
2022/10/15 00:17:57;;;;;;;4.80;1.10;;;;;;;6.27;100.00;100512.42;1683443;83;21814;-49
2022/10/15 00:23:03;;;;;;;1.77;0.90;;;;;;;6.33;100.00;100506.95;1838962;75;22069;-46
2022/10/15 00:25:29;;;;;;;3.33;1.00;;;;;;;6.34;100.00;100514.52;1812697;77;21047;-47
2022/10/15 00:27:56;;;;;;;5.70;0.80;;;;;;;6.37;100.00;100513.13;1816550;77;21903;-46
2022/10/15 00:30:24;;;;;;;2.17;0.80;;;;;;;6.40;100.00;100511.27;1810745;77;21485;-46
2022/10/15 00:34:05;;;;;;;4.57;1.30;;;;;;;6.43;100.00;100504.53;1849857;75;27442;-46
2022/10/15 00:36:33;;;;;;;2.35;1.20;;;;;;;6.51;100.00;100511.52;1817385;77;28032;-47
2022/10/15 00:39:04;;;;;;;2.50;0.90;;;;;;;6.62;100.00;100508.19;1836829;76;22624;-46
2022/10/15 00:41:42;;;;;;;3.10;0.95;;;;;;;6.69;100.00;100510.70;1836955;77;21052;-47
2022/10/15 00:44:28;;;;;;;2.95;1.20;;;;;;;6.70;100.00;100507.57;1783012;78;21590;-47
2022/10/15 00:47:02;;;;;;;1.87;1.02;;;;;;;6.70;100.00;100503.55;1785531;78;21036;-47
2022/10/15 00:49:36;;;;;;;1.90;1.00;;;;;;;6.69;100.00;100500.45;1799960;78;21391;-47
2022/10/15 00:52:18;;;;;;;1.82;0.90;;;;;;;6.63;100.00;100506.82;1778887;78;22885;-47
2022/10/15 00:54:55;;;;;;;1.52;0.93;;;;;;;6.59;100.00;100505.10;1768604;79;21309;-47
2022/10/15 00:57:23;;;;;;;1.73;0.90;;;;;;;6.55;100.00;100507.40;1768088;78;21152;-46
2022/10/15 00:59:53;;;;;;;1.60;0.80;;;;;;;6.54;100.00;100511.47;1801660;78;21033;-46
2022/10/15 01:02:19;;;;;;;2.70;0.80;;;;;;;6.54;100.00;100512.81;1802226;77;21096;-47
2022/10/15 01:04:46;;;;;;;1.70;0.80;;;;;;;6.54;100.00;100511.02;1792913;78;21366;-48
2022/10/15 01:07:14;;;;;;;2.00;0.83;;;;;;;6.54;100.00;100511.02;1774689;78;21397;-47
2022/10/15 01:09:41;;;;;;;1.92;0.93;;;;;;;6.57;100.00;100514.95;1773244;79;21534;-47
2022/10/15 01:12:17;;;;;;;1.77;1.10;;;;;;;6.56;100.00;100509.62;1801358;78;21133;-47
2022/10/15 01:15:07;;;;;;;1.93;0.90;;;;;;;6.54;100.00;100508.80;1778564;78;21451;-47
2022/10/15 01:17:57;;;;;;;2.13;1.20;;;;;;;6.51;100.00;100511.06;1747912;78;21803;-47
2022/10/15 01:20:42;;;;;;;5.57;1.40;;;;;;;6.48;100.00;100511.11;1801047;78;21401;-47
2022/10/15 01:24:02;;;;;;;3.03;1.00;;;;;;;6.45;100.00;100506.73;1798462;78;21087;-48
2022/10/15 01:27:18;;;;;;;2.03;0.97;;;;;;;6.42;100.00;100508.11;1799864;78;21032;-47
2022/10/15 01:30:12;;;;;;;2.25;1.00;;;;;;;6.38;100.00;100499.70;1795109;78;21637;-49
2022/10/15 01:33:07;;;;;;;1.30;0.93;;;;;;;6.34;100.00;100496.69;1762573;79;23117;-49
2022/10/15 01:35:50;;;;;;;2.43;1.00;;;;;;;6.32;100.00;100494.48;1800955;78;21025;-47
2022/10/15 01:38:57;;;;;;;1.40;0.90;;;;;;;6.31;100.00;100498.06;1768675;78;21592;-47
2022/10/15 01:41:39;;;;;;;2.08;0.90;;;;;;;6.31;100.00;100499.86;1772390;78;21037;-46
2022/10/15 01:44:14;;;;;;;2.13;1.37;;;;;;;6.31;100.00;100511.44;1799731;77;21087;-48
2022/10/15 01:46:57;;;;;;;2.23;1.10;;;;;;;6.29;100.00;100505.72;1692530;83;23064;-47
2022/10/15 01:49:27;;;;;;;3.90;1.00;;;;;;;6.29;100.00;100505.72;1779703;79;21014;-49
2022/10/15 01:51:53;;;;;;;6.70;1.20;;;;;;;6.27;100.00;100506.19;1800386;78;21072;-47
2022/10/15 01:54:20;;;;;;;5.10;1.50;;;;;;;6.26;100.00;100512.45;1797236;77;21111;-47
2022/10/15 01:56:48;;;;;;;3.77;1.33;;;;;;;6.24;100.00;100507.58;1754271;79;21648;-47
2022/10/15 01:59:21;;;;;;;5.50;1.60;;;;;;;6.22;100.00;100510.27;1774210;79;21497;-47
2022/10/15 02:01:48;;;;;;;7.10;1.47;;;;;;;6.21;100.00;100511.66;1771320;79;20994;-48
2022/10/15 02:04:22;;;;;;;2.07;1.00;;;;;;;6.19;100.00;100518.82;1746905;80;21414;-48
2022/10/15 02:06:55;;;;;;;5.27;1.60;;;;;;;6.16;100.00;100513.52;1772127;79;21065;-48
2022/10/15 02:09:46;;;;;;;3.57;1.17;;;;;;;6.15;100.00;100507.73;1774896;79;21570;-48
2022/10/15 02:12:43;;;;;;;4.23;0.90;;;;;;;6.15;100.00;100519.77;1770489;79;22928;-48
2022/10/15 02:15:26;;;;;;;2.80;1.10;;;;;;;6.14;100.00;100520.22;1768466;79;21095;-48
2022/10/15 02:18:14;;;;;;;1.77;0.90;;;;;;;6.15;100.00;100516.64;1761967;79;21350;-48
2022/10/15 02:20:57;;;;;;;4.30;1.13;;;;;;;6.19;100.00;100521.50;1775325;79;21088;-48
2022/10/15 02:23:42;;;;;;;4.67;1.20;;;;;;;6.20;100.00;100514.79;1774955;78;21816;-48
2022/10/15 02:26:08;;;;;;;3.47;0.97;;;;;;;6.21;100.00;100515.67;1774198;78;21768;-48
2022/10/15 02:28:37;;;;;;;3.00;1.20;;;;;;;6.21;100.00;100520.53;1799788;78;21014;-48
2022/10/15 02:31:04;;;;;;;5.03;1.20;;;;;;;6.21;100.00;100519.20;1764993;79;21135;-48
2022/10/15 02:33:32;;;;;;;4.70;1.00;;;;;;;6.21;100.00;100521.87;1766734;78;21587;-48
2022/10/15 02:35:58;;;;;;;5.13;1.27;;;;;;;6.21;100.00;100527.70;1771853;79;21045;-48
2022/10/15 02:38:26;;;;;;;2.53;1.40;;;;;;;6.20;100.00;100525.94;1772048;79;21861;-48
2022/10/15 02:40:53;;;;;;;3.90;1.50;;;;;;;6.19;100.00;100526.84;1772942;80;21053;-48
2022/10/15 02:43:20;;;;;;;2.70;1.10;;;;;;;6.19;100.00;100530.84;1776269;79;21634;-48
2022/10/15 02:45:47;;;;;;;2.83;0.90;;;;;;;6.18;100.00;100528.63;1770759;79;21662;-48
2022/10/15 02:48:15;;;;;;;1.10;0.80;;;;;;;6.17;100.00;100528.20;1773879;79;21063;-48
2022/10/15 02:50:42;;;;;;;2.73;0.70;;;;;;;6.17;100.00;100530.88;1766987;79;21998;-48
2022/10/15 02:53:09;;;;;;;3.30;1.10;;;;;;;6.18;100.00;100535.77;1770924;79;21065;-48
2022/10/15 02:55:36;;;;;;;2.70;0.93;;;;;;;6.20;100.00;100531.28;1773560;79;22557;-48
2022/10/15 02:58:03;;;;;;;1.60;0.90;;;;;;;6.20;100.00;100531.28;1765896;80;21085;-48
2022/10/15 03:00:30;;;;;;;2.67;1.00;;;;;;;6.22;100.00;100530.77;1770537;80;21123;-48
2022/10/15 03:02:57;;;;;;;1.73;1.20;;;;;;;6.22;100.00;100524.09;1772113;79;23929;-48
2022/10/15 03:05:23;;;;;;;4.10;0.87;;;;;;;6.23;100.00;100521.84;1770428;79;21575;-48
2022/10/15 03:07:50;;;;;;;2.27;1.03;;;;;;;6.24;100.00;100527.63;1770868;79;21085;-48
2022/10/15 03:10:19;;;;;;;4.00;1.20;;;;;;;6.24;100.00;100528.96;1771249;79;21021;-48
2022/10/15 03:12:47;;;;;;;7.07;1.10;;;;;;;6.24;100.00;100529.84;1770609;79;21194;-48
2022/10/15 03:15:14;;;;;;;4.80;1.40;;;;;;;6.24;100.00;100523.61;1774966;79;22001;-48
2022/10/15 03:17:41;;;;;;;4.53;1.03;;;;;;;6.22;100.00;100526.31;1769998;79;21052;-48
2022/10/15 03:20:08;;;;;;;3.37;1.27;;;;;;;6.21;100.00;100524.55;1769134;79;21062;-48
2022/10/15 03:22:37;;;;;;;5.10;1.43;;;;;;;6.19;100.00;100526.39;1771384;79;21061;-48
2022/10/15 03:25:05;;;;;;;3.60;1.07;;;;;;;6.17;100.00;100526.86;1772353;79;21768;-48
2022/10/15 03:27:32;;;;;;;4.47;1.87;;;;;;;6.16;100.00;100524.20;1772044;79;21829;-48
2022/10/15 03:29:59;;;;;;;3.20;1.60;;;;;;;6.16;100.00;100530.89;1772504;79;21097;-48
2022/10/15 03:32:26;;;;;;;5.45;1.10;;;;;;;6.16;100.00;100525.55;1771459;78;21080;-48
2022/10/15 03:34:53;;;;;;;3.30;1.00;;;;;;;6.16;100.00;100525.09;1747921;80;21064;-48
2022/10/15 03:37:19;;;;;;;6.17;1.25;;;;;;;6.17;100.00;100527.31;1740282;81;21084;-48
2022/10/15 03:39:46;;;;;;;3.65;1.45;;;;;;;6.19;100.00;100526.84;1742112;81;21987;-48
2022/10/15 03:42:13;;;;;;;3.30;1.20;;;;;;;6.19;100.00;100527.72;1741764;81;21061;-48
2022/10/15 03:44:42;;;;;;;2.42;1.30;;;;;;;6.18;100.00;100522.40;1745528;81;21525;-48
2022/10/15 03:47:12;;;;;;;1.73;1.20;;;;;;;6.17;100.00;100524.19;1742204;81;21084;-48
2022/10/15 03:49:43;;;;;;;3.87;1.50;;;;;;;6.17;100.00;100520.63;1738931;81;21108;-48
2022/10/15 03:52:09;;;;;;;2.70;1.17;;;;;;;6.16;100.00;100524.20;1742430;79;21815;-48
2022/10/15 03:54:36;;;;;;;3.63;1.30;;;;;;;6.16;100.00;100530.89;1741418;81;21060;-48
2022/10/15 03:57:03;;;;;;;3.73;0.93;;;;;;;6.14;100.00;100532.25;1719017;81;21155;-48
2022/10/15 03:59:31;;;;;;;3.47;1.10;;;;;;;6.14;100.00;100533.59;1740484;81;21078;-48
2022/10/15 04:02:00;;;;;;;3.73;1.30;;;;;;;6.13;100.00;100529.59;1741522;80;21150;-48
2022/10/15 04:04:26;;;;;;;2.00;0.90;;;;;;;6.12;100.00;100531.42;1765612;79;22440;-48
2022/10/15 04:06:54;;;;;;;2.30;1.00;;;;;;;6.12;100.00;100534.55;1746436;81;21427;-48
2022/10/15 04:09:22;;;;;;;2.03;1.07;;;;;;;6.11;100.00;100529.66;1747055;81;21053;-48
2022/10/15 04:11:48;;;;;;;2.43;0.90;;;;;;;6.11;100.00;100532.78;1742252;80;21046;-48
2022/10/15 04:14:18;;;;;;;3.37;0.97;;;;;;;6.12;100.00;100538.11;1733754;81;21048;-48
2022/10/15 04:16:44;;;;;;;4.97;0.80;;;;;;;6.14;100.00;100531.37;1764376;79;21946;-48
2022/10/15 04:19:16;;;;;;;5.13;1.13;;;;;;;6.18;100.00;100535.31;1743299;80;21012;-48
2022/10/15 04:21:45;;;;;;;3.40;1.17;;;;;;;6.21;100.00;100531.71;1737863;81;21454;-48
2022/10/15 04:24:13;;;;;;;3.07;1.30;;;;;;;6.23;100.00;100532.55;1753023;80;20952;-48
2022/10/15 04:26:41;;;;;;;7.60;4.23;;;;;;;6.24;100.00;100535.19;1773838;79;20985;-48
2022/10/15 04:29:09;;;;;;;4.17;2.52;;;;;;;6.25;100.00;100539.63;1747267;81;21005;-48
2022/10/15 04:31:36;;;;;;;4.67;1.90;;;;;;;6.25;100.00;100534.73;1745449;81;21439;-48
2022/10/15 04:34:04;;;;;;;5.80;2.02;;;;;;;6.24;100.00;100536.53;1754831;79;21016;-48
2022/10/15 04:36:30;;;;;;;5.60;1.67;;;;;;;6.23;100.00;100533.42;1761867;79;21523;-48
2022/10/15 04:38:59;;;;;;;3.50;1.53;;;;;;;6.23;100.00;100528.53;1767591;79;20969;-48
2022/10/15 04:41:27;;;;;;;7.97;1.60;;;;;;;6.22;100.00;100528.98;1759994;79;21921;-48
2022/10/15 04:44:01;;;;;;;2.85;1.35;;;;;;;6.23;100.00;100532.55;1763457;79;21049;-48
2022/10/15 04:46:29;;;;;;;3.40;0.90;;;;;;;6.22;100.00;100526.77;1759201;80;20989;-48
2022/10/15 04:48:57;;;;;;;5.77;1.20;;;;;;;6.22;100.00;100536.12;1768442;79;21081;-48
2022/10/15 04:51:27;;;;;;;4.12;1.10;;;;;;;6.22;100.00;100533.45;1767434;79;21099;-48
2022/10/15 04:54:10;;;;;;;2.75;1.15;;;;;;;6.23;100.00;100539.22;1769928;79;21819;-49
2022/10/15 04:56:38;;;;;;;3.27;0.90;;;;;;;6.26;100.00;100536.05;1768757;79;22155;-49
2022/10/15 04:59:06;;;;;;;1.90;1.33;;;;;;;6.29;100.00;100535.13;1758976;79;21056;-49
2022/10/15 05:01:35;;;;;;;3.35;1.52;;;;;;;6.30;100.00;100541.75;1759157;80;21327;-49
2022/10/15 05:04:03;;;;;;;2.98;1.30;;;;;;;6.32;100.00;100545.74;1756644;80;21563;-49
2022/10/15 05:06:33;;;;;;;2.13;1.20;;;;;;;6.34;100.00;100543.93;1772204;79;22474;-49
2022/10/15 05:09:03;;;;;;;3.03;1.73;;;;;;;6.36;100.00;100544.80;1774325;79;21044;-48
2022/10/15 05:11:33;;;;;;;6.55;1.62;;;;;;;6.38;100.00;100550.52;1779839;78;21447;-49
2022/10/15 05:13:59;;;;;;;4.97;1.50;;;;;;;6.39;100.00;100548.27;1755209;79;21489;-48
2022/10/15 05:16:28;;;;;;;4.37;1.57;;;;;;;6.41;100.00;100546.91;1757323;80;21040;-48
2022/10/15 05:18:58;;;;;;;5.62;1.50;;;;;;;6.41;100.00;100549.13;1755335;80;22518;-48
2022/10/15 05:21:25;;;;;;;8.50;1.57;;;;;;;6.41;100.00;100552.27;1748227;80;21039;-49
2022/10/15 05:23:54;;;;;;;3.25;1.65;;;;;;;6.40;100.00;100547.81;1755966;80;21091;-48
2022/10/15 05:26:39;;;;;;;7.67;2.23;;;;;;;6.39;100.00;100548.27;1750203;80;21067;-48
2022/10/15 05:29:06;;;;;;;3.40;1.20;;;;;;;6.41;100.00;100549.59;1720542;80;21060;-48
2022/10/15 05:31:33;;;;;;;6.00;0.85;;;;;;;6.43;100.00;100561.14;1745588;80;22963;-49
2022/10/15 05:34:08;;;;;;;2.80;1.10;;;;;;;6.46;100.00;100554.41;1749072;80;21084;-48
2022/10/15 05:36:36;;;;;;;3.50;1.17;;;;;;;6.50;100.00;100553.88;1784626;78;21052;-48
2022/10/15 05:39:03;;;;;;;2.50;0.93;;;;;;;6.57;100.00;100564.43;1766489;79;21068;-49
2022/10/15 05:41:32;;;;;;;3.05;1.25;;;;;;;6.63;100.00;100563.00;1755758;80;21084;-48
2022/10/15 05:43:59;;;;;;;3.30;1.07;;;;;;;6.70;100.00;100563.75;1766030;79;21821;-49
2022/10/15 05:46:27;;;;;;;5.03;1.55;;;;;;;6.78;100.00;100564.48;1780850;78;21081;-48
2022/10/15 05:48:56;;;;;;;6.55;1.30;;;;;;;6.87;100.00;100562.08;1778307;79;21076;-48
2022/10/15 05:51:24;;;;;;;1.42;0.90;;;;;;;6.95;100.00;100565.48;1774292;79;21005;-48
2022/10/15 05:53:55;;;;;;;5.80;1.10;;;;;;;7.06;100.00;100557.62;1778818;79;21013;-48
2022/10/15 05:56:22;;;;;;;4.10;0.90;;;;;;;7.18;100.00;100552.48;1776163;79;21822;-49
2022/10/15 05:58:49;;;;;;;3.27;1.65;;;;;;;7.32;100.00;100554.84;1769366;79;21029;-49
2022/10/15 06:01:15;;;;;;;1.50;0.70;;;;;;;7.43;100.00;100555.48;1777275;79;21046;-49
2022/10/15 06:03:46;;;;;;;3.33;0.95;;;;;;;7.54;100.00;100562.37;1777594;79;21040;-49
2022/10/15 06:06:22;;;;;;;1.57;0.70;;;;;;;7.65;100.00;100559.45;1776567;79;21017;-49
2022/10/15 06:08:49;;;;;;;2.83;0.80;;;;;;;7.75;100.00;100555.61;1775359;78;22583;-49
2022/10/15 06:11:15;;;;;;;3.72;0.82;;;;;;;7.84;100.00;100559.88;1767339;79;21057;-48
2022/10/15 06:13:43;;;;;;;1.10;0.70;;;;;;;7.92;100.00;100566.81;1775564;79;21047;-48
2022/10/15 06:16:12;;;;;;;2.12;0.70;;;;;;;7.99;100.00;100563.05;1777080;79;21577;-48
2022/10/15 06:18:38;;;;;;;1.62;0.65;;;;;;;8.06;100.00;100567.83;1772637;79;22218;-48
2022/10/15 06:21:06;;;;;;;1.20;0.65;;;;;;;8.14;100.00;100574.33;1773915;79;21849;-48
2022/10/15 06:23:34;;;;;;;2.58;0.70;;;;;;;8.20;100.00;100569.69;1775648;79;21015;-48
2022/10/15 06:26:07;;;;;;;2.30;0.62;;;;;;;8.31;100.00;100582.87;1766240;79;21511;-49
2022/10/15 06:28:34;;;;;;;1.95;0.62;;;;;;;8.40;100.00;100583.09;1757812;80;21097;-49
2022/10/15 06:31:00;;;;;;;2.92;0.68;;;;;;;8.47;100.00;100578.86;1771128;79;21045;-49
2022/10/15 06:33:30;;;;;;;1.22;0.42;;;;;;;8.58;100.00;100577.23;1758018;79;21047;-49
2022/10/15 06:36:04;;;;;;;3.17;0.47;;;;;;;8.66;100.00;100570.73;1777665;78;21015;-49
2022/10/15 06:38:32;;;;;;;0.60;0.50;;;;;;;8.76;100.00;100575.86;1782949;78;21014;-49
2022/10/15 06:40:59;;;;;;;0.75;0.50;;;;;;;8.85;100.00;100579.59;1786453;78;21153;-47
2022/10/15 06:43:25;;;;;;;0.82;0.50;;;;;;;8.94;100.00;100574.84;1807220;78;21085;-49
2022/10/15 06:45:52;;;;;;;3.45;0.60;;;;;;;9.04;100.00;100578.16;1790031;78;22640;-49
2022/10/15 06:48:19;;;;;;;0.60;0.50;;;;;;;9.12;100.00;100580.16;1769735;79;21511;-48
2022/10/15 06:50:45;;;;;;;5.20;0.80;;;;;;;9.20;100.00;100582.15;1779616;78;21682;-48
2022/10/15 06:53:12;;;;;;;1.35;0.60;;;;;;;9.30;100.00;100592.17;1783768;78;21103;-48
2022/10/15 06:55:38;;;;;;;3.62;0.60;;;;;;;9.38;100.00;100591.47;1782027;78;21269;-48
2022/10/15 06:58:06;;;;;;;1.10;0.50;;;;;;;9.46;100.00;100598.38;1791512;79;21779;-48
2022/10/15 07:00:33;;;;;;;0.78;0.50;;;;;;;9.57;100.00;100599.41;1782153;78;21031;-49
2022/10/15 07:03:04;;;;;;;0.80;0.60;;;;;;;9.65;100.00;100593.33;1785544;78;21088;-48
2022/10/15 07:05:32;;;;;;;0.70;0.50;;;;;;;9.75;100.00;100597.95;1809283;78;21080;-49
2022/10/15 07:07:58;;;;;;;1.00;0.50;;;;;;;9.83;100.00;100591.41;1810383;78;21104;-48
2022/10/15 07:10:28;;;;;;;1.27;0.50;;;;;;;9.92;100.00;100596.07;1779345;78;21035;-49
2022/10/15 07:12:57;;;;;;;0.72;0.50;;;;;;;9.99;100.00;100587.75;1788842;79;21586;-48
2022/10/15 07:15:23;;;;;;;1.40;0.40;;;;;;;10.09;100.00;100596.41;1750714;78;21063;-48
2022/10/15 07:17:56;;;;;;;5.50;0.40;;;;;;;10.17;100.00;100592.56;1804936;77;21056;-49
2022/10/15 07:20:24;;;;;;;0.93;0.50;;;;;;;10.26;100.00;100590.50;1801358;78;20998;-49
2022/10/15 07:22:57;;;;;;;0.50;0.40;;;;;;;10.35;100.00;100588.84;1808257;77;21826;-49
2022/10/15 07:25:25;;;;;;;1.80;0.80;;;;;;;10.43;100.00;100594.38;1786138;78;20957;-49
2022/10/15 07:27:51;;;;;;;0.70;0.50;;;;;;;10.51;100.00;100592.30;1812525;78;21012;-49
2022/10/15 07:30:21;;;;;;;1.07;0.53;;;;;;;10.58;100.00;100596.53;1782858;78;20981;-49
2022/10/15 07:32:51;;;;;;;0.95;0.40;;;;;;;10.67;100.00;100598.48;1804575;77;21021;-49
2022/10/15 07:35:18;;;;;;;0.90;0.40;;;;;;;10.75;100.00;100601.79;1769787;79;21796;-49
2022/10/15 07:37:46;;;;;;;0.70;0.50;;;;;;;10.83;100.00;100602.39;1774989;78;20993;-49
2022/10/15 07:40:13;;;;;;;0.80;0.50;;;;;;;10.91;100.00;100601.65;1774207;79;21045;-49
2022/10/15 07:42:40;;;;;;;0.70;0.40;;;;;;;11.00;100.00;100604.01;1775507;79;21523;-49
2022/10/15 07:45:08;;;;;;;1.65;0.47;;;;;;;11.08;100.00;100601.91;1776457;79;20970;-49
2022/10/15 07:47:35;;;;;;;0.42;0.40;;;;;;;11.17;100.00;100605.62;1777792;79;21912;-49
2022/10/15 07:50:02;;;;;;;1.55;0.40;;;;;;;11.27;100.00;100607.50;1776449;78;20969;-49
2022/10/15 07:52:30;;;;;;;0.50;0.40;;;;;;;11.34;100.00;100602.29;1773142;79;21776;-49
2022/10/15 07:54:57;;;;;;;0.72;0.30;;;;;;;11.43;100.00;100606.45;1772995;79;21569;-49
2022/10/15 07:57:24;;;;;;;0.62;0.30;;;;;;;11.50;100.00;100607.97;1770832;80;21080;-49
2022/10/15 07:59:50;;;;;;;1.72;0.50;;;;;;;11.58;100.00;100608.55;1796665;78;22603;-49
2022/10/15 08:02:17;;;;;;;0.65;0.33;;;;;;;11.65;100.00;100610.94;1773232;79;21519;-49
2022/10/15 08:04:45;;;;;;;2.05;0.40;;;;;;;11.72;100.00;100608.45;1766792;80;21487;-49
2022/10/15 08:07:11;;;;;;;3.47;0.33;;;;;;;11.81;100.00;100609.94;1799421;77;21033;-49
2022/10/15 08:09:39;;;;;;;0.60;0.30;;;;;;;11.89;100.00;100608.28;1796474;78;21056;-49
2022/10/15 08:12:07;;;;;;;0.50;0.30;;;;;;;11.97;100.00;100608.38;1770376;78;21326;-50
2022/10/15 08:14:35;;;;;;;0.88;0.40;;;;;;;12.11;100.00;100607.80;1782154;78;21044;-49
2022/10/15 08:17:03;;;;;;;0.53;0.40;;;;;;;12.11;100.00;100598.36;1778152;79;21369;-50
2022/10/15 08:19:30;;;;;;;0.40;0.30;;;;;;;12.16;100.00;100607.16;1774585;79;21064;-49
2022/10/15 08:21:57;;;;;;;0.42;0.30;;;;;;;12.25;100.00;100612.15;1774940;78;21084;-49
2022/10/15 08:24:25;;;;;;;0.70;0.40;;;;;;;12.31;100.00;100602.94;1778244;79;21829;-49
2022/10/15 08:26:51;;;;;;;2.75;0.30;;;;;;;12.38;100.00;100609.84;1775778;79;20943;-50
2022/10/15 08:29:19;;;;;;;0.65;0.30;;;;;;;12.52;100.00;100610.12;1777000;79;21013;-49
2022/10/15 08:31:46;;;;;;;0.42;0.28;;;;;;;12.52;100.00;100610.12;1779374;79;21064;-49
2022/10/15 08:34:12;;;;;;;1.50;0.37;;;;;;;12.64;100.00;100609.61;1770092;79;21092;-49
2022/10/15 08:36:39;;;;;;;0.62;0.40;;;;;;;12.64;100.00;100609.61;1771016;79;22423;-49
2022/10/15 08:39:08;;;;;;;0.65;0.30;;;;;;;12.69;100.00;100607.57;1773712;78;21562;-50
2022/10/15 08:44:03;;;;;;;0.47;0.30;;;;;;;12.79;100.00;100599.48;1872574;75;23841;-48
2022/10/15 08:46:37;;;;;;;1.15;0.30;;;;;;;12.82;100.00;100606.58;1839498;77;21036;-48
2022/10/15 08:49:04;;;;;;;3.08;0.45;;;;;;;12.88;100.00;100604.95;1838574;77;21852;-49
2022/10/15 08:51:45;;;;;;;1.10;0.57;;;;;;;12.93;100.00;100610.17;1840174;75;22155;-49
2022/10/15 08:54:15;;;;;;;2.60;0.30;;;;;;;12.99;100.00;100609.89;1838517;77;21045;-49
2022/10/15 08:56:44;;;;;;;1.25;0.30;;;;;;;13.02;100.00;100608.38;1838315;77;21055;-49
2022/10/15 08:59:37;;;;;;;0.60;0.30;;;;;;;13.06;100.00;100604.13;1816606;77;21037;-49
2022/10/15 09:02:15;;;;;;;0.65;0.30;;;;;;;13.11;100.00;100598.03;1816389;77;21997;-48
2022/10/15 09:05:27;;;;;;;0.93;0.30;;;;;;;13.17;100.00;100602.34;1754434;80;21084;-48
2022/10/15 09:08:02;;;;;;;0.80;0.30;;;;;;;13.20;100.00;100597.66;1751483;80;21024;-49
2022/10/15 09:10:49;;;;;;;0.60;0.30;;;;;;;13.25;100.00;100596.11;1779759;79;21076;-48
2022/10/15 09:13:29;;;;;;;2.27;0.33;;;;;;;13.29;100.00;100597.70;1763722;80;21071;-49
2022/10/15 09:16:03;;;;;;;0.60;0.35;;;;;;;13.33;100.00;100604.75;1757476;79;21126;-49
2022/10/15 09:18:33;;;;;;;1.80;0.30;;;;;;;13.35;100.00;100600.16;1762961;80;25453;-49
2022/10/15 09:21:01;;;;;;;1.55;0.30;;;;;;;13.37;100.00;100599.58;1763319;80;21109;-49
2022/10/15 09:23:29;;;;;;;0.47;0.30;;;;;;;13.39;100.00;100606.28;1733251;81;21087;-49
2022/10/15 09:26:28;;;;;;;0.55;0.30;;;;;;;13.39;100.00;100599.52;1761381;79;21507;-49
2022/10/15 09:29:20;;;;;;;0.90;0.40;;;;;;;13.43;100.00;100599.80;1763453;80;21848;-49
2022/10/15 09:32:08;;;;;;;0.20;0.20;;;;;;;13.44;100.00;100605.10;1760246;80;21149;-49
2022/10/15 09:34:45;;;;;;;0.95;0.20;;;;;;;13.48;100.00;100605.38;1762294;79;21457;-49
2022/10/15 09:37:38;;;;;;;1.52;0.30;;;;;;;13.49;100.00;100606.26;1762696;80;21210;-49
2022/10/15 09:40:38;;;;;;;0.50;0.30;;;;;;;13.50;100.00;100604.84;1716662;81;21532;-49
2022/10/15 09:43:05;;;;;;;1.22;0.30;;;;;;;13.53;100.00;100592.50;1759724;79;21850;-49
2022/10/15 09:45:32;;;;;;;1.75;0.40;;;;;;;13.55;100.00;100594.67;1760222;79;21376;-49
2022/10/15 09:47:59;;;;;;;0.60;0.30;;;;;;;13.58;100.00;100599.06;1760030;79;21324;-49
2022/10/15 09:50:37;;;;;;;1.85;0.28;;;;;;;13.60;100.00;100596.70;1761563;80;21087;-49
2022/10/15 09:53:20;;;;;;;0.78;0.30;;;;;;;13.61;100.00;100600.25;1758340;79;21080;-49
2022/10/15 09:56:06;;;;;;;1.35;0.90;;;;;;;13.63;100.00;100601.06;1763064;80;21040;-49
2022/10/15 09:58:41;;;;;;;2.55;1.47;;;;;;;13.64;100.00;100595.59;1764179;79;29356;-49
2022/10/15 10:01:19;;;;;;;0.95;0.60;;;;;;;13.66;100.00;100599.58;1762791;79;21071;-49
2022/10/15 10:03:45;;;;;;;0.98;0.57;;;;;;;13.67;100.00;100590.52;1733815;80;21111;-49
2022/10/15 10:06:12;;;;;;;0.50;0.30;;;;;;;13.70;100.00;100601.65;1694367;81;21082;-49
2022/10/15 10:08:54;;;;;;;2.95;0.40;;;;;;;13.70;100.00;100592.17;1756521;80;21801;-49
2022/10/15 10:11:22;;;;;;;1.22;0.60;;;;;;;13.70;100.00;100587.64;1760539;79;21553;-49
2022/10/15 10:13:53;;;;;;;2.08;0.70;;;;;;;13.70;100.00;100589.00;1762009;79;21056;-49
2022/10/15 10:16:20;;;;;;;1.35;0.60;;;;;;;13.72;100.00;100598.41;1765279;80;20974;-49
2022/10/15 10:19:04;;;;;;;2.60;0.85;;;;;;;13.71;100.00;100593.94;1764704;80;20988;-49
2022/10/15 10:21:36;;;;;;;1.70;0.50;;;;;;;13.73;100.00;100590.69;1763905;80;21749;-49
2022/10/15 10:24:30;;;;;;;3.45;0.40;;;;;;;13.76;100.00;100595.97;1760192;79;21013;-49
2022/10/15 10:26:57;;;;;;;0.35;0.28;;;;;;;13.78;100.00;100598.13;1762650;79;21802;-49
2022/10/15 10:29:23;;;;;;;1.55;0.30;;;;;;;13.78;100.00;100592.21;1767163;79;20970;-49
2022/10/15 10:31:51;;;;;;;2.15;0.30;;;;;;;13.78;100.00;100588.66;1763173;80;21537;-49
2022/10/15 10:34:30;;;;;;;0.82;0.30;;;;;;;13.80;100.00;100592.14;1779313;79;21908;-49
2022/10/15 10:37:00;;;;;;;2.60;0.30;;;;;;;13.82;100.00;100590.25;1775041;79;20965;-49
2022/10/15 10:39:30;;;;;;;0.88;0.30;;;;;;;13.81;100.00;100587.14;1725112;79;21018;-49
2022/10/15 10:42:06;;;;;;;1.45;0.30;;;;;;;13.80;100.00;100580.84;1758031;80;20993;-49
2022/10/15 10:44:38;;;;;;;3.27;0.40;;;;;;;13.80;100.00;100576.79;1752962;80;21644;-49
2022/10/15 10:47:22;;;;;;;0.37;0.30;;;;;;;13.82;100.00;100582.13;1758658;80;21735;-49
2022/10/15 10:49:56;;;;;;;1.95;0.30;;;;;;;13.83;100.00;100578.48;1755876;80;21079;-49
2022/10/15 10:52:31;;;;;;;1.52;0.30;;;;;;;13.84;100.00;100576.18;1759752;80;21041;-49
2022/10/15 10:55:09;;;;;;;0.80;0.30;;;;;;;13.84;100.00;100578.88;1756380;80;21041;-49
2022/10/15 10:57:54;;;;;;;0.40;0.20;;;;;;;13.84;100.00;100582.47;1751798;80;21386;-49
2022/10/15 11:00:39;;;;;;;0.72;0.25;;;;;;;13.85;100.00;100584.23;1751658;80;21842;-49
2022/10/15 11:03:35;;;;;;;2.45;0.30;;;;;;;13.86;100.00;100579.70;1756260;80;21040;-49
2022/10/15 11:06:35;;;;;;;3.40;0.20;;;;;;;13.86;100.00;100575.16;1783964;78;21105;-49
2022/10/15 11:09:31;;;;;;;0.80;0.30;;;;;;;13.87;100.00;100573.30;1785095;79;21079;-49
2022/10/15 11:12:26;;;;;;;1.80;0.30;;;;;;;13.87;100.00;100564.71;1784516;79;22198;-49
2022/10/15 11:15:13;;;;;;;0.53;0.20;;;;;;;13.84;100.00;100560.82;1760561;79;21802;-50
2022/10/15 11:18:17;;;;;;;0.40;0.20;;;;;;;13.84;100.00;100561.30;1758485;80;21048;-49
2022/10/15 11:21:16;;;;;;;2.05;0.30;;;;;;;13.83;100.00;100569.89;1772062;79;21015;-49
2022/10/15 11:24:19;;;;;;;1.62;0.30;;;;;;;13.83;100.00;100563.59;1759665;80;21066;-49
2022/10/15 11:27:19;;;;;;;0.62;0.30;;;;;;;13.83;100.00;100564.95;1763579;80;21132;-49
2022/10/15 11:30:06;;;;;;;1.30;0.40;;;;;;;13.82;100.00;100561.36;1729581;80;21853;-50
2022/10/15 11:32:57;;;;;;;0.47;0.30;;;;;;;13.81;100.00;100563.66;1734417;80;22282;-50
2022/10/15 11:36:00;;;;;;;0.50;0.30;;;;;;;13.81;100.00;100566.37;1763054;80;21216;-50
2022/10/15 11:38:40;;;;;;;0.40;0.20;;;;;;;13.82;100.00;100566.77;1766145;80;21079;-49
2022/10/15 11:41:33;;;;;;;0.40;0.30;;;;;;;13.82;100.00;100560.48;1764469;80;21597;-49
2022/10/15 11:44:23;;;;;;;0.40;0.30;;;;;;;13.82;100.00;100560.48;1762189;80;21830;-49
2022/10/15 11:47:17;;;;;;;0.65;0.47;;;;;;;13.81;100.00;100558.25;1764133;80;21042;-49
2022/10/15 11:50:16;;;;;;;7.33;0.85;;;;;;;13.79;100.00;100560.62;1763927;79;21046;-49
2022/10/15 11:53:05;;;;;;;0.85;0.30;;;;;;;13.79;100.00;100559.27;1761720;79;21362;-49
2022/10/15 11:55:58;;;;;;;2.37;0.40;;;;;;;13.77;100.00;100558.02;1759308;80;21430;-49